sensor_id;sensor_type;location;lat;lon;timestamp;P1;durP1;ratioP1;P2;durP2;ratioP2
15061;SDS011;7630;50.306;8.566;2023-02-18T00:00:35;1.90;;;1.80;;
15061;SDS011;7630;50.306;8.566;2023-02-18T00:04:37;2.17;;;1.97;;
15061;SDS011;7630;50.306;8.566;2023-02-18T00:08:39;1.70;;;1.60;;
15061;SDS011;7630;50.306;8.566;2023-02-18T00:12:42;1.53;;;1.43;;
15061;SDS011;7630;50.306;8.566;2023-02-18T00:16:43;3.10;;;1.70;;
15061;SDS011;7630;50.306;8.566;2023-02-18T00:20:45;2.00;;;1.90;;
15061;SDS011;7630;50.306;8.566;2023-02-18T00:24:46;2.73;;;2.53;;
15061;SDS011;7630;50.306;8.566;2023-02-18T00:28:48;1.80;;;1.70;;
15061;SDS011;7630;50.306;8.566;2023-02-18T00:32:52;2.57;;;2.37;;
15061;SDS011;7630;50.306;8.566;2023-02-18T00:36:54;2.50;;;1.80;;
15061;SDS011;7630;50.306;8.566;2023-02-18T00:40:55;2.13;;;1.93;;
15061;SDS011;7630;50.306;8.566;2023-02-18T00:44:56;2.00;;;1.90;;
15061;SDS011;7630;50.306;8.566;2023-02-18T00:48:57;1.87;;;1.77;;
15061;SDS011;7630;50.306;8.566;2023-02-18T00:52:58;2.37;;;2.27;;
15061;SDS011;7630;50.306;8.566;2023-02-18T00:57:00;2.33;;;1.73;;
15061;SDS011;7630;50.306;8.566;2023-02-18T01:01:01;1.70;;;1.60;;
15061;SDS011;7630;50.306;8.566;2023-02-18T01:05:03;1.90;;;1.80;;
15061;SDS011;7630;50.306;8.566;2023-02-18T01:09:05;2.10;;;1.90;;
15061;SDS011;7630;50.306;8.566;2023-02-18T01:13:06;2.27;;;2.17;;
15061;SDS011;7630;50.306;8.566;2023-02-18T01:17:08;2.30;;;1.80;;
15061;SDS011;7630;50.306;8.566;2023-02-18T01:21:09;1.53;;;1.43;;
15061;SDS011;7630;50.306;8.566;2023-02-18T01:25:11;1.50;;;1.40;;
15061;SDS011;7630;50.306;8.566;2023-02-18T01:29:12;1.07;;;1.07;;
15061;SDS011;7630;50.306;8.566;2023-02-18T01:33:13;1.40;;;1.40;;
15061;SDS011;7630;50.306;8.566;2023-02-18T01:37:15;1.80;;;1.70;;
15061;SDS011;7630;50.306;8.566;2023-02-18T01:41:16;1.63;;;1.53;;
15061;SDS011;7630;50.306;8.566;2023-02-18T01:49:37;1.50;;;1.40;;
15061;SDS011;7630;50.306;8.566;2023-02-18T01:57:53;1.67;;;1.57;;
15061;SDS011;7630;50.306;8.566;2023-02-18T02:01:54;2.20;;;1.63;;
15061;SDS011;7630;50.306;8.566;2023-02-18T02:05:56;1.43;;;1.30;;
15061;SDS011;7630;50.306;8.566;2023-02-18T02:09:57;3.53;;;1.53;;
15061;SDS011;7630;50.306;8.566;2023-02-18T02:26:57;3.30;;;1.77;;
15061;SDS011;7630;50.306;8.566;2023-02-18T02:35:32;2.07;;;1.93;;
15061;SDS011;7630;50.306;8.566;2023-02-18T02:43:47;1.63;;;1.53;;
15061;SDS011;7630;50.306;8.566;2023-02-18T02:47:50;1.53;;;1.43;;
15061;SDS011;7630;50.306;8.566;2023-02-18T02:51:58;2.50;;;1.47;;
15061;SDS011;7630;50.306;8.566;2023-02-18T02:56:01;1.60;;;1.37;;
15061;SDS011;7630;50.306;8.566;2023-02-18T03:00:04;1.17;;;1.13;;
15061;SDS011;7630;50.306;8.566;2023-02-18T03:04:12;1.60;;;1.50;;
15061;SDS011;7630;50.306;8.566;2023-02-18T03:16:58;1.00;;;1.00;;
15061;SDS011;7630;50.306;8.566;2023-02-18T03:21:20;0.90;;;0.90;;
15061;SDS011;7630;50.306;8.566;2023-02-18T03:25:20;0.90;;;0.90;;
15061;SDS011;7630;50.306;8.566;2023-02-18T03:29:23;0.90;;;0.90;;
15061;SDS011;7630;50.306;8.566;2023-02-18T03:33:27;1.30;;;1.20;;
15061;SDS011;7630;50.306;8.566;2023-02-18T03:37:31;0.90;;;0.90;;
15061;SDS011;7630;50.306;8.566;2023-02-18T03:41:34;0.73;;;0.73;;
15061;SDS011;7630;50.306;8.566;2023-02-18T03:45:36;0.80;;;0.80;;
15061;SDS011;7630;50.306;8.566;2023-02-18T03:49:37;0.83;;;0.83;;
15061;SDS011;7630;50.306;8.566;2023-02-18T03:53:38;0.70;;;0.70;;
15061;SDS011;7630;50.306;8.566;2023-02-18T03:57:40;1.10;;;1.00;;
15061;SDS011;7630;50.306;8.566;2023-02-18T04:01:41;1.23;;;1.23;;
15061;SDS011;7630;50.306;8.566;2023-02-18T04:05:42;0.70;;;0.70;;
15061;SDS011;7630;50.306;8.566;2023-02-18T04:09:43;3.57;;;1.17;;
15061;SDS011;7630;50.306;8.566;2023-02-18T04:13:44;1.37;;;1.23;;
15061;SDS011;7630;50.306;8.566;2023-02-18T04:17:45;1.83;;;1.07;;
15061;SDS011;7630;50.306;8.566;2023-02-18T04:21:46;1.10;;;1.00;;
15061;SDS011;7630;50.306;8.566;2023-02-18T04:25:47;1.17;;;1.07;;
15061;SDS011;7630;50.306;8.566;2023-02-18T04:29:48;1.00;;;1.00;;
15061;SDS011;7630;50.306;8.566;2023-02-18T04:33:50;1.40;;;1.30;;
15061;SDS011;7630;50.306;8.566;2023-02-18T04:37:51;1.40;;;1.30;;
15061;SDS011;7630;50.306;8.566;2023-02-18T04:41:52;1.47;;;1.37;;
15061;SDS011;7630;50.306;8.566;2023-02-18T04:45:53;1.43;;;0.70;;
15061;SDS011;7630;50.306;8.566;2023-02-18T04:49:55;4.53;;;0.90;;
15061;SDS011;7630;50.306;8.566;2023-02-18T04:53:56;1.90;;;0.87;;
15061;SDS011;7630;50.306;8.566;2023-02-18T04:57:57;0.90;;;0.90;;
15061;SDS011;7630;50.306;8.566;2023-02-18T05:01:59;1.30;;;1.20;;
15061;SDS011;7630;50.306;8.566;2023-02-18T05:06:00;0.80;;;0.80;;
15061;SDS011;7630;50.306;8.566;2023-02-18T05:10:01;1.23;;;1.13;;
15061;SDS011;7630;50.306;8.566;2023-02-18T05:14:03;1.73;;;1.63;;
15061;SDS011;7630;50.306;8.566;2023-02-18T05:18:04;1.63;;;1.53;;
15061;SDS011;7630;50.306;8.566;2023-02-18T05:22:05;2.53;;;2.33;;
15061;SDS011;7630;50.306;8.566;2023-02-18T05:26:06;1.40;;;1.30;;
15061;SDS011;7630;50.306;8.566;2023-02-18T05:30:08;1.60;;;1.50;;
15061;SDS011;7630;50.306;8.566;2023-02-18T05:34:10;3.63;;;1.50;;
15061;SDS011;7630;50.306;8.566;2023-02-18T05:38:11;2.67;;;1.60;;
15061;SDS011;7630;50.306;8.566;2023-02-18T05:42:12;0.80;;;0.80;;
15061;SDS011;7630;50.306;8.566;2023-02-18T05:46:13;1.00;;;1.00;;
15061;SDS011;7630;50.306;8.566;2023-02-18T05:50:14;1.00;;;1.00;;
15061;SDS011;7630;50.306;8.566;2023-02-18T05:54:15;1.13;;;1.13;;
15061;SDS011;7630;50.306;8.566;2023-02-18T05:58:16;1.03;;;1.00;;
15061;SDS011;7630;50.306;8.566;2023-02-18T06:02:18;1.30;;;1.20;;
15061;SDS011;7630;50.306;8.566;2023-02-18T06:06:19;1.30;;;1.20;;
15061;SDS011;7630;50.306;8.566;2023-02-18T06:10:20;1.87;;;1.17;;
15061;SDS011;7630;50.306;8.566;2023-02-18T06:14:21;1.73;;;1.63;;
15061;SDS011;7630;50.306;8.566;2023-02-18T06:18:22;2.07;;;1.20;;
15061;SDS011;7630;50.306;8.566;2023-02-18T06:22:23;1.63;;;1.53;;
15061;SDS011;7630;50.306;8.566;2023-02-18T06:26:25;1.43;;;1.33;;
15061;SDS011;7630;50.306;8.566;2023-02-18T06:30:26;1.97;;;1.87;;
15061;SDS011;7630;50.306;8.566;2023-02-18T06:34:27;1.70;;;1.53;;
15061;SDS011;7630;50.306;8.566;2023-02-18T06:38:28;5.23;;;1.70;;
15061;SDS011;7630;50.306;8.566;2023-02-18T06:42:30;1.53;;;1.43;;
15061;SDS011;7630;50.306;8.566;2023-02-18T06:46:31;1.90;;;1.70;;
15061;SDS011;7630;50.306;8.566;2023-02-18T06:50:32;2.23;;;2.03;;
15061;SDS011;7630;50.306;8.566;2023-02-18T06:54:33;1.77;;;1.67;;
15061;SDS011;7630;50.306;8.566;2023-02-18T06:58:34;2.43;;;2.23;;
15061;SDS011;7630;50.306;8.566;2023-02-18T07:02:35;2.20;;;2.03;;
15061;SDS011;7630;50.306;8.566;2023-02-18T07:06:36;1.70;;;1.60;;
15061;SDS011;7630;50.306;8.566;2023-02-18T07:10:38;2.60;;;1.63;;
15061;SDS011;7630;50.306;8.566;2023-02-18T07:14:39;1.60;;;1.50;;
15061;SDS011;7630;50.306;8.566;2023-02-18T07:18:40;2.10;;;2.00;;
15061;SDS011;7630;50.306;8.566;2023-02-18T07:22:41;2.30;;;2.10;;
15061;SDS011;7630;50.306;8.566;2023-02-18T07:26:42;3.93;;;2.27;;
15061;SDS011;7630;50.306;8.566;2023-02-18T07:30:44;2.17;;;2.07;;
15061;SDS011;7630;50.306;8.566;2023-02-18T07:34:45;2.93;;;2.73;;
15061;SDS011;7630;50.306;8.566;2023-02-18T07:38:46;1.83;;;1.73;;
15061;SDS011;7630;50.306;8.566;2023-02-18T07:42:47;1.13;;;1.13;;
15061;SDS011;7630;50.306;8.566;2023-02-18T07:46:48;1.53;;;1.50;;
15061;SDS011;7630;50.306;8.566;2023-02-18T07:50:49;1.17;;;1.07;;
15061;SDS011;7630;50.306;8.566;2023-02-18T07:54:50;1.03;;;1.03;;
15061;SDS011;7630;50.306;8.566;2023-02-18T07:58:51;1.17;;;1.17;;
15061;SDS011;7630;50.306;8.566;2023-02-18T08:02:53;1.33;;;1.30;;
15061;SDS011;7630;50.306;8.566;2023-02-18T08:06:54;1.93;;;1.83;;
15061;SDS011;7630;50.306;8.566;2023-02-18T08:10:57;1.70;;;1.60;;
15061;SDS011;7630;50.306;8.566;2023-02-18T08:15:03;1.80;;;1.70;;
15061;SDS011;7630;50.306;8.566;2023-02-18T08:19:05;2.47;;;2.13;;
15061;SDS011;7630;50.306;8.566;2023-02-18T08:23:08;2.00;;;1.90;;
15061;SDS011;7630;50.306;8.566;2023-02-18T08:27:11;2.40;;;2.30;;
15061;SDS011;7630;50.306;8.566;2023-02-18T08:31:18;2.07;;;1.97;;
15061;SDS011;7630;50.306;8.566;2023-02-18T08:35:21;3.07;;;2.90;;
15061;SDS011;7630;50.306;8.566;2023-02-18T08:39:22;2.00;;;1.90;;
15061;SDS011;7630;50.306;8.566;2023-02-18T08:43:23;2.37;;;2.17;;
15061;SDS011;7630;50.306;8.566;2023-02-18T08:47:25;2.50;;;2.40;;
15061;SDS011;7630;50.306;8.566;2023-02-18T08:51:28;2.23;;;2.13;;
15061;SDS011;7630;50.306;8.566;2023-02-18T08:55:30;2.07;;;1.97;;
15061;SDS011;7630;50.306;8.566;2023-02-18T08:59:33;2.67;;;2.47;;
15061;SDS011;7630;50.306;8.566;2023-02-18T09:03:35;2.97;;;2.73;;
15061;SDS011;7630;50.306;8.566;2023-02-18T09:07:36;3.10;;;2.27;;
15061;SDS011;7630;50.306;8.566;2023-02-18T09:11:37;2.10;;;2.00;;
15061;SDS011;7630;50.306;8.566;2023-02-18T09:15:39;1.93;;;1.50;;
15061;SDS011;7630;50.306;8.566;2023-02-18T09:19:40;1.70;;;1.60;;
15061;SDS011;7630;50.306;8.566;2023-02-18T09:23:41;2.00;;;1.90;;
15061;SDS011;7630;50.306;8.566;2023-02-18T09:27:42;3.27;;;1.37;;
15061;SDS011;7630;50.306;8.566;2023-02-18T09:31:43;1.10;;;1.10;;
15061;SDS011;7630;50.306;8.566;2023-02-18T09:35:45;1.67;;;1.53;;
15061;SDS011;7630;50.306;8.566;2023-02-18T09:39:46;1.40;;;1.33;;
15061;SDS011;7630;50.306;8.566;2023-02-18T09:43:48;1.27;;;1.17;;
15061;SDS011;7630;50.306;8.566;2023-02-18T09:47:53;1.70;;;1.60;;
15061;SDS011;7630;50.306;8.566;2023-02-18T09:51:55;1.43;;;1.33;;
15061;SDS011;7630;50.306;8.566;2023-02-18T09:55:58;2.10;;;1.57;;
15061;SDS011;7630;50.306;8.566;2023-02-18T10:00:06;1.13;;;1.13;;
15061;SDS011;7630;50.306;8.566;2023-02-18T10:04:12;4.73;;;1.67;;
15061;SDS011;7630;50.306;8.566;2023-02-18T10:08:27;1.20;;;1.20;;
15061;SDS011;7630;50.306;8.566;2023-02-18T10:12:30;1.80;;;1.70;;
15061;SDS011;7630;50.306;8.566;2023-02-18T10:16:34;1.40;;;1.40;;
15061;SDS011;7630;50.306;8.566;2023-02-18T10:20:35;1.10;;;1.10;;
15061;SDS011;7630;50.306;8.566;2023-02-18T10:24:38;1.13;;;1.13;;
15061;SDS011;7630;50.306;8.566;2023-02-18T10:28:41;1.43;;;1.20;;
15061;SDS011;7630;50.306;8.566;2023-02-18T10:32:43;1.70;;;1.60;;
15061;SDS011;7630;50.306;8.566;2023-02-18T10:40:57;1.10;;;1.10;;
15061;SDS011;7630;50.306;8.566;2023-02-18T10:54:05;1.37;;;1.07;;
15061;SDS011;7630;50.306;8.566;2023-02-18T10:58:23;1.93;;;1.83;;
15061;SDS011;7630;50.306;8.566;2023-02-18T11:02:15;4.70;;;1.37;;
15061;SDS011;7630;50.306;8.566;2023-02-18T11:10:28;1.13;;;0.93;;
15061;SDS011;7630;50.306;8.566;2023-02-18T11:14:38;0.80;;;0.80;;
15061;SDS011;7630;50.306;8.566;2023-02-18T11:18:39;1.87;;;1.37;;
15061;SDS011;7630;50.306;8.566;2023-02-18T11:22:42;1.57;;;1.43;;
15061;SDS011;7630;50.306;8.566;2023-02-18T11:26:43;1.17;;;1.07;;
15061;SDS011;7630;50.306;8.566;2023-02-18T11:30:45;1.20;;;1.20;;
15061;SDS011;7630;50.306;8.566;2023-02-18T11:34:49;1.43;;;1.37;;
15061;SDS011;7630;50.306;8.566;2023-02-18T11:38:54;2.17;;;1.60;;
15061;SDS011;7630;50.306;8.566;2023-02-18T11:43:09;3.00;;;1.40;;
15061;SDS011;7630;50.306;8.566;2023-02-18T11:51:22;3.33;;;1.60;;
15061;SDS011;7630;50.306;8.566;2023-02-18T11:55:28;1.60;;;1.50;;
15061;SDS011;7630;50.306;8.566;2023-02-18T11:59:32;4.10;;;1.57;;
15061;SDS011;7630;50.306;8.566;2023-02-18T12:03:51;1.57;;;1.40;;
15061;SDS011;7630;50.306;8.566;2023-02-18T12:08:00;2.30;;;1.90;;
15061;SDS011;7630;50.306;8.566;2023-02-18T12:12:13;2.73;;;1.50;;
15061;SDS011;7630;50.306;8.566;2023-02-18T12:16:20;4.77;;;2.03;;
15061;SDS011;7630;50.306;8.566;2023-02-18T12:34:00;3.93;;;2.20;;
15061;SDS011;7630;50.306;8.566;2023-02-18T13:04:27;3.60;;;3.27;;
15061;SDS011;7630;50.306;8.566;2023-02-18T13:12:51;2.53;;;2.30;;
15061;SDS011;7630;50.306;8.566;2023-02-18T13:17:01;2.70;;;2.47;;
15061;SDS011;7630;50.306;8.566;2023-02-18T13:25:13;5.90;;;3.43;;
15061;SDS011;7630;50.306;8.566;2023-02-18T13:29:23;5.77;;;2.77;;
15061;SDS011;7630;50.306;8.566;2023-02-18T13:42:09;3.20;;;2.57;;
15061;SDS011;7630;50.306;8.566;2023-02-18T13:46:16;2.47;;;2.13;;
15061;SDS011;7630;50.306;8.566;2023-02-18T13:54:31;2.30;;;2.10;;
15061;SDS011;7630;50.306;8.566;2023-02-18T13:58:42;1.90;;;1.80;;
15061;SDS011;7630;50.306;8.566;2023-02-18T14:02:56;2.00;;;1.90;;
15061;SDS011;7630;50.306;8.566;2023-02-18T14:11:31;2.90;;;1.80;;
15061;SDS011;7630;50.306;8.566;2023-02-18T14:19:39;1.70;;;1.60;;
15061;SDS011;7630;50.306;8.566;2023-02-18T14:23:41;2.10;;;1.90;;
15061;SDS011;7630;50.306;8.566;2023-02-18T14:27:44;2.40;;;2.20;;
15061;SDS011;7630;50.306;8.566;2023-02-18T14:31:49;3.07;;;2.20;;
15061;SDS011;7630;50.306;8.566;2023-02-18T14:35:59;2.30;;;2.10;;
15061;SDS011;7630;50.306;8.566;2023-02-18T14:40:31;2.63;;;2.20;;
15061;SDS011;7630;50.306;8.566;2023-02-18T14:53:01;2.77;;;2.53;;
15061;SDS011;7630;50.306;8.566;2023-02-18T14:57:07;3.27;;;1.60;;
15061;SDS011;7630;50.306;8.566;2023-02-18T15:01:27;3.27;;;2.90;;
15061;SDS011;7630;50.306;8.566;2023-02-18T15:05:31;1.47;;;1.37;;
15061;SDS011;7630;50.306;8.566;2023-02-18T15:09:43;1.83;;;1.63;;
15061;SDS011;7630;50.306;8.566;2023-02-18T15:13:43;1.47;;;1.37;;
15061;SDS011;7630;50.306;8.566;2023-02-18T15:17:46;1.37;;;1.20;;
15061;SDS011;7630;50.306;8.566;2023-02-18T15:21:49;1.93;;;1.73;;
15061;SDS011;7630;50.306;8.566;2023-02-18T15:25:51;2.00;;;1.70;;
15061;SDS011;7630;50.306;8.566;2023-02-18T15:29:58;1.73;;;1.37;;
15061;SDS011;7630;50.306;8.566;2023-02-18T15:34:01;2.73;;;1.80;;
15061;SDS011;7630;50.306;8.566;2023-02-18T15:38:03;2.03;;;1.93;;
15061;SDS011;7630;50.306;8.566;2023-02-18T15:42:06;1.63;;;1.53;;
15061;SDS011;7630;50.306;8.566;2023-02-18T15:46:12;1.83;;;1.50;;
15061;SDS011;7630;50.306;8.566;2023-02-18T15:50:18;2.00;;;1.80;;
15061;SDS011;7630;50.306;8.566;2023-02-18T15:54:21;2.37;;;1.70;;
15061;SDS011;7630;50.306;8.566;2023-02-18T15:58:31;1.80;;;1.70;;
15061;SDS011;7630;50.306;8.566;2023-02-18T16:02:31;4.37;;;3.93;;
15061;SDS011;7630;50.306;8.566;2023-02-18T16:06:34;2.70;;;1.57;;
15061;SDS011;7630;50.306;8.566;2023-02-18T16:10:43;1.10;;;1.10;;
15061;SDS011;7630;50.306;8.566;2023-02-18T16:14:49;1.70;;;1.60;;
15061;SDS011;7630;50.306;8.566;2023-02-18T16:18:50;2.37;;;1.30;;
15061;SDS011;7630;50.306;8.566;2023-02-18T16:22:52;1.43;;;1.33;;
15061;SDS011;7630;50.306;8.566;2023-02-18T16:26:57;2.20;;;1.93;;
15061;SDS011;7630;50.306;8.566;2023-02-18T16:31:00;1.33;;;1.30;;
15061;SDS011;7630;50.306;8.566;2023-02-18T16:35:01;1.30;;;1.30;;
15061;SDS011;7630;50.306;8.566;2023-02-18T16:39:03;1.57;;;1.00;;
15061;SDS011;7630;50.306;8.566;2023-02-18T16:43:14;1.50;;;1.40;;
15061;SDS011;7630;50.306;8.566;2023-02-18T16:47:17;3.13;;;1.73;;
15061;SDS011;7630;50.306;8.566;2023-02-18T16:51:25;1.10;;;1.10;;
15061;SDS011;7630;50.306;8.566;2023-02-18T16:55:25;1.10;;;1.10;;
15061;SDS011;7630;50.306;8.566;2023-02-18T16:59:28;1.32;;;1.17;;
15061;SDS011;7630;50.306;8.566;2023-02-18T17:03:30;1.53;;;1.00;;
15061;SDS011;7630;50.306;8.566;2023-02-18T17:07:31;1.30;;;0.90;;
15061;SDS011;7630;50.306;8.566;2023-02-18T17:11:33;1.20;;;1.10;;
15061;SDS011;7630;50.306;8.566;2023-02-18T17:15:34;1.33;;;1.10;;
15061;SDS011;7630;50.306;8.566;2023-02-18T17:19:36;1.43;;;1.03;;
15061;SDS011;7630;50.306;8.566;2023-02-18T17:23:37;1.83;;;1.53;;
15061;SDS011;7630;50.306;8.566;2023-02-18T17:27:38;1.03;;;1.03;;
15061;SDS011;7630;50.306;8.566;2023-02-18T17:31:40;1.53;;;1.43;;
15061;SDS011;7630;50.306;8.566;2023-02-18T17:35:45;2.10;;;1.87;;
15061;SDS011;7630;50.306;8.566;2023-02-18T17:39:46;1.30;;;1.20;;
15061;SDS011;7630;50.306;8.566;2023-02-18T17:43:47;2.67;;;1.77;;
15061;SDS011;7630;50.306;8.566;2023-02-18T17:47:48;1.70;;;1.60;;
15061;SDS011;7630;50.306;8.566;2023-02-18T17:51:49;1.70;;;1.60;;
15061;SDS011;7630;50.306;8.566;2023-02-18T17:55:52;2.03;;;1.93;;
15061;SDS011;7630;50.306;8.566;2023-02-18T17:59:53;1.43;;;1.33;;
15061;SDS011;7630;50.306;8.566;2023-02-18T18:03:56;1.73;;;1.63;;
15061;SDS011;7630;50.306;8.566;2023-02-18T18:07:57;2.20;;;2.10;;
15061;SDS011;7630;50.306;8.566;2023-02-18T18:11:59;2.20;;;2.00;;
15061;SDS011;7630;50.306;8.566;2023-02-18T18:16:01;2.90;;;2.70;;
15061;SDS011;7630;50.306;8.566;2023-02-18T18:20:02;1.70;;;1.57;;
15061;SDS011;7630;50.306;8.566;2023-02-18T18:24:03;3.63;;;2.27;;
15061;SDS011;7630;50.306;8.566;2023-02-18T18:28:05;2.80;;;2.20;;
15061;SDS011;7630;50.306;8.566;2023-02-18T18:32:07;2.50;;;2.40;;
15061;SDS011;7630;50.306;8.566;2023-02-18T18:36:08;2.50;;;2.40;;
15061;SDS011;7630;50.306;8.566;2023-02-18T18:40:10;2.60;;;2.40;;
15061;SDS011;7630;50.306;8.566;2023-02-18T18:44:11;2.80;;;2.60;;
15061;SDS011;7630;50.306;8.566;2023-02-18T18:48:13;3.53;;;3.33;;
15061;SDS011;7630;50.306;8.566;2023-02-18T18:52:14;5.40;;;3.13;;
15061;SDS011;7630;50.306;8.566;2023-02-18T18:56:16;4.03;;;3.73;;
15061;SDS011;7630;50.306;8.566;2023-02-18T19:00:18;3.53;;;3.33;;
15061;SDS011;7630;50.306;8.566;2023-02-18T19:04:24;3.73;;;3.43;;
15061;SDS011;7630;50.306;8.566;2023-02-18T19:08:27;3.53;;;3.27;;
15061;SDS011;7630;50.306;8.566;2023-02-18T19:12:29;3.73;;;3.53;;
15061;SDS011;7630;50.306;8.566;2023-02-18T19:16:34;4.57;;;3.60;;
15061;SDS011;7630;50.306;8.566;2023-02-18T19:20:38;3.90;;;3.60;;
15061;SDS011;7630;50.306;8.566;2023-02-18T19:24:41;4.53;;;4.23;;
15061;SDS011;7630;50.306;8.566;2023-02-18T19:28:43;5.00;;;4.60;;
15061;SDS011;7630;50.306;8.566;2023-02-18T19:32:46;4.50;;;4.20;;
15061;SDS011;7630;50.306;8.566;2023-02-18T19:36:47;5.00;;;4.60;;
15061;SDS011;7630;50.306;8.566;2023-02-18T19:40:48;5.43;;;5.03;;
15061;SDS011;7630;50.306;8.566;2023-02-18T19:44:50;5.20;;;4.80;;
15061;SDS011;7630;50.306;8.566;2023-02-18T19:48:53;4.83;;;4.50;;
15061;SDS011;7630;50.306;8.566;2023-02-18T19:52:54;4.10;;;3.80;;
15061;SDS011;7630;50.306;8.566;2023-02-18T19:56:55;4.00;;;3.70;;
15061;SDS011;7630;50.306;8.566;2023-02-18T20:00:59;4.77;;;4.47;;
15061;SDS011;7630;50.306;8.566;2023-02-18T20:05:00;6.83;;;4.00;;
15061;SDS011;7630;50.306;8.566;2023-02-18T20:09:01;4.60;;;4.20;;
15061;SDS011;7630;50.306;8.566;2023-02-18T20:13:03;5.07;;;4.67;;
15061;SDS011;7630;50.306;8.566;2023-02-18T20:17:05;5.70;;;5.30;;
15061;SDS011;7630;50.306;8.566;2023-02-18T20:21:08;5.03;;;4.63;;
15061;SDS011;7630;50.306;8.566;2023-02-18T20:25:11;7.83;;;5.40;;
15061;SDS011;7630;50.306;8.566;2023-02-18T20:29:13;5.87;;;5.40;;
15061;SDS011;7630;50.306;8.566;2023-02-18T20:33:14;5.63;;;5.20;;
15061;SDS011;7630;50.306;8.566;2023-02-18T20:37:15;5.83;;;5.43;;
15061;SDS011;7630;50.306;8.566;2023-02-18T20:41:16;5.40;;;5.00;;
15061;SDS011;7630;50.306;8.566;2023-02-18T20:45:19;5.73;;;5.23;;
15061;SDS011;7630;50.306;8.566;2023-02-18T20:49:20;5.30;;;4.90;;
15061;SDS011;7630;50.306;8.566;2023-02-18T20:53:22;6.13;;;5.63;;
15061;SDS011;7630;50.306;8.566;2023-02-18T20:57:23;6.33;;;5.73;;
15061;SDS011;7630;50.306;8.566;2023-02-18T21:01:24;6.40;;;5.80;;
15061;SDS011;7630;50.306;8.566;2023-02-18T21:05:26;7.30;;;6.73;;
15061;SDS011;7630;50.306;8.566;2023-02-18T21:09:27;6.83;;;6.33;;
15061;SDS011;7630;50.306;8.566;2023-02-18T21:13:28;7.77;;;7.17;;
15061;SDS011;7630;50.306;8.566;2023-02-18T21:17:30;7.23;;;6.63;;
15061;SDS011;7630;50.306;8.566;2023-02-18T21:21:31;7.17;;;6.67;;
15061;SDS011;7630;50.306;8.566;2023-02-18T21:25:33;7.17;;;6.67;;
15061;SDS011;7630;50.306;8.566;2023-02-18T21:29:35;6.70;;;6.20;;
15061;SDS011;7630;50.306;8.566;2023-02-18T21:33:36;5.83;;;5.43;;
15061;SDS011;7630;50.306;8.566;2023-02-18T21:37:38;6.80;;;6.30;;
15061;SDS011;7630;50.306;8.566;2023-02-18T21:41:39;6.57;;;6.07;;
15061;SDS011;7630;50.306;8.566;2023-02-18T21:45:41;6.00;;;5.60;;
15061;SDS011;7630;50.306;8.566;2023-02-18T21:49:43;6.27;;;5.77;;
15061;SDS011;7630;50.306;8.566;2023-02-18T21:53:44;5.90;;;5.50;;
15061;SDS011;7630;50.306;8.566;2023-02-18T21:57:45;6.53;;;5.93;;
15061;SDS011;7630;50.306;8.566;2023-02-18T22:01:47;6.63;;;6.13;;
15061;SDS011;7630;50.306;8.566;2023-02-18T22:05:48;7.00;;;6.40;;
15061;SDS011;7630;50.306;8.566;2023-02-18T22:09:50;7.03;;;6.43;;
15061;SDS011;7630;50.306;8.566;2023-02-18T22:13:53;8.10;;;7.47;;
15061;SDS011;7630;50.306;8.566;2023-02-18T22:17:54;8.00;;;7.40;;
15061;SDS011;7630;50.306;8.566;2023-02-18T22:21:56;7.70;;;7.13;;
15061;SDS011;7630;50.306;8.566;2023-02-18T22:26:00;9.00;;;8.30;;
15061;SDS011;7630;50.306;8.566;2023-02-18T22:30:05;9.50;;;8.70;;
15061;SDS011;7630;50.306;8.566;2023-02-18T22:34:07;9.93;;;9.13;;
15061;SDS011;7630;50.306;8.566;2023-02-18T22:38:08;9.13;;;8.33;;
15061;SDS011;7630;50.306;8.566;2023-02-18T22:42:09;9.90;;;9.10;;
15061;SDS011;7630;50.306;8.566;2023-02-18T22:46:16;9.27;;;8.57;;
15061;SDS011;7630;50.306;8.566;2023-02-18T22:50:16;9.40;;;8.70;;
15061;SDS011;7630;50.306;8.566;2023-02-18T22:54:17;8.30;;;7.57;;
15061;SDS011;7630;50.306;8.566;2023-02-18T22:58:19;8.90;;;8.20;;
15061;SDS011;7630;50.306;8.566;2023-02-18T23:02:20;9.10;;;8.40;;
15061;SDS011;7630;50.306;8.566;2023-02-18T23:06:23;8.73;;;8.03;;
15061;SDS011;7630;50.306;8.566;2023-02-18T23:10:25;8.93;;;8.23;;
15061;SDS011;7630;50.306;8.566;2023-02-18T23:14:26;10.60;;;8.43;;
15061;SDS011;7630;50.306;8.566;2023-02-18T23:18:28;9.67;;;8.83;;
15061;SDS011;7630;50.306;8.566;2023-02-18T23:22:30;9.87;;;9.10;;
15061;SDS011;7630;50.306;8.566;2023-02-18T23:26:33;10.00;;;9.20;;
15061;SDS011;7630;50.306;8.566;2023-02-18T23:30:34;8.90;;;8.20;;
15061;SDS011;7630;50.306;8.566;2023-02-18T23:34:35;8.30;;;7.70;;
15061;SDS011;7630;50.306;8.566;2023-02-18T23:38:37;8.87;;;8.27;;
15061;SDS011;7630;50.306;8.566;2023-02-18T23:42:39;7.27;;;6.77;;
15061;SDS011;7630;50.306;8.566;2023-02-18T23:46:40;7.53;;;7.03;;
15061;SDS011;7630;50.306;8.566;2023-02-18T23:50:43;6.83;;;6.33;;
15061;SDS011;7630;50.306;8.566;2023-02-18T23:54:45;7.23;;;6.63;;
15061;SDS011;7630;50.306;8.566;2023-02-18T23:58:47;7.80;;;7.20;;
